Date,TemperatureHighF,TemperatureAvgF,TemperatureLowF,DewpointHighF,DewpointAvgF,DewpointLowF,HumidityHigh,HumidityAvg,HumidityLow,PressureMaxIn,PressureMinIn,WindSpeedMaxMPH,WindSpeedAvgMPH,GustSpeedMaxMPH,PrecipitationSumIn
2013-2-4,45.5,45.4,45.2,42.9,42.8,42.7,91,91,90,29.87,29.86,2,1,5,0.00
2013-2-5,51.2,46.2,44.0,44.4,42.9,41.5,95,88,75,29.90,29.81,5,2,16,0.11
2013-2-6,50.9,45.5,43.4,44.4,42.1,40.8,94,88,70,30.02,29.76,4,1,14,0.12
2013-2-7,49.4,44.0,39.7,42.4,38.8,36.5,91,82,67,30.16,29.76,5,2,14,0.09
2013-2-8,46.5,42.3,38.8,39.4,38.0,36.6,94,85,74,30.28,30.16,2,0,8,0.00
2013-2-9,47.9,43.4,41.1,41.3,39.8,37.2,94,87,68,30.32,30.24,1,0,4,0.01
2013-2-10,46.2,42.1,36.0,41.0,38.8,35.0,97,88,71,30.36,30.30,2,0,7,0.00
2013-2-11,49.2,44.7,41.8,43.1,40.9,38.8,93,87,71,30.33,30.30,1,0,4,0.01
2013-2-12,49.7,46.7,44.5,46.3,44.7,42.2,97,93,85,30.38,30.25,4,1,13,0.02
2013-2-13,49.8,46.6,44.6,45.9,43.0,41.3,93,87,76,30.48,30.28,1,0,13,0.02
2013-2-14,48.5,45.9,43.4,45.6,43.6,41.2,96,92,85,30.53,30.47,1,0,5,0.03
2013-2-15,51.9,46.1,41.2,44.9,43.0,39.6,96,89,76,30.53,30.15,4,1,11,0.00
2013-2-16,55.3,45.6,39.8,44.7,42.2,38.0,97,88,63,30.17,30.08,4,1,17,0.04
2013-2-17,46.3,42.2,40.6,42.0,38.4,36.7,92,86,75,30.22,30.09,1,0,6,0.02
2013-2-18,48.5,43.5,39.9,39.6,38.1,36.5,93,82,68,30.09,29.74,3,0,6,0.00
2013-2-19,49.4,43.2,38.0,40.1,37.2,34.9,92,80,61,29.99,29.72,4,1,11,0.00
2013-2-20,46.4,41.0,37.0,40.7,37.8,34.2,94,88,76,30.02,29.97,3,0,9,0.10
2013-2-21,44.2,42.8,40.5,40.9,39.6,38.3,95,88,82,30.04,29.98,5,2,15,0.02
2013-2-22,46.5,42.6,38.1,43.0,39.3,34.4,93,88,79,30.02,29.65,7,4,20,0.12
2013-2-23,51.9,44.0,38.6,39.9,37.2,34.8,90,78,56,30.35,29.88,9,2,13,0.00
2013-2-24,48.6,45.0,40.9,39.0,37.7,36.6,86,76,68,30.35,29.92,5,2,13,0.01
2013-2-25,54.5,44.6,39.3,40.4,37.2,30.2,92,77,43,30.28,29.85,6,2,15,0.12
2013-2-26,48.6,44.0,39.0,39.0,36.1,33.5,88,74,58,30.32,30.17,3,1,10,0.01
2013-2-27,50.0,44.5,40.9,44.7,41.4,38.4,96,89,71,30.28,30.18,4,0,9,0.19
2013-2-28,51.5,47.1,42.9,50.1,46.0,41.8,97,96,94,30.30,30.17,3,1,8,0.25